createdAt,value
2017-07-25T00:00:01.000Z,20.9
2017-07-25T00:10:02.000Z,20.9
2017-07-25T00:20:01.000Z,20.8
2017-07-25T00:30:01.000Z,20.8
2017-07-25T00:40:05.000Z,20.8
2017-07-25T00:50:01.000Z,20.8
2017-07-25T01:00:01.000Z,20.7
2017-07-25T01:10:01.000Z,20.7
2017-07-25T01:20:01.000Z,20.7
2017-07-25T01:30:01.000Z,20.7
2017-07-25T01:40:01.000Z,20.6
2017-07-25T01:50:02.000Z,20.6
2017-07-25T02:00:02.000Z,20.5
2017-07-25T02:10:01.000Z,20.4
2017-07-25T02:20:01.000Z,20.3
2017-07-25T02:30:02.000Z,20.3
2017-07-25T02:40:01.000Z,20.3
2017-07-25T02:50:01.000Z,20.3
2017-07-25T03:00:01.000Z,20.3
2017-07-25T03:10:01.000Z,20.3
2017-07-25T03:20:05.000Z,20.3
2017-07-25T03:30:01.000Z,20.3
2017-07-25T03:40:01.000Z,20.3
2017-07-25T03:50:01.000Z,20.3
2017-07-25T04:00:01.000Z,20.3
2017-07-25T04:10:01.000Z,20.3
2017-07-25T04:20:01.000Z,20.3
2017-07-25T04:30:02.000Z,20.3
2017-07-25T04:40:01.000Z,20.3
2017-07-25T04:50:01.000Z,20.3
2017-07-25T05:00:02.000Z,20.3
2017-07-25T05:10:01.000Z,20.3
2017-07-25T05:20:01.000Z,20.3
2017-07-25T05:30:01.000Z,20.3
2017-07-25T05:40:02.000Z,20.3
2017-07-25T05:50:01.000Z,20.3
2017-07-25T06:00:05.000Z,20.3
2017-07-25T06:10:02.000Z,20.3
2017-07-25T06:20:01.000Z,20.3
2017-07-25T06:30:01.000Z,20.3
2017-07-25T06:40:01.000Z,20.3
2017-07-25T06:50:01.000Z,20.3
2017-07-25T07:00:01.000Z,20.3
2017-07-25T07:10:01.000Z,20.3
2017-07-25T07:20:02.000Z,20.3
2017-07-25T07:30:01.000Z,20.3
2017-07-25T07:40:01.000Z,20.3
2017-07-25T07:50:01.000Z,20.3
2017-07-25T08:00:02.000Z,20.3
2017-07-25T08:10:01.000Z,20.3
2017-07-25T08:20:01.000Z,20.3
2017-07-25T08:30:01.000Z,20.3
2017-07-25T08:40:05.000Z,20.3
2017-07-25T08:50:01.000Z,20.3
2017-07-25T09:00:02.000Z,20.3
2017-07-25T09:10:01.000Z,20.3
2017-07-25T09:20:01.000Z,20.3
2017-07-25T09:30:01.000Z,20.3
2017-07-25T09:40:01.000Z,20.3
2017-07-25T09:50:01.000Z,20.3
2017-07-25T10:00:01.000Z,20.3
2017-07-25T10:10:01.000Z,20.3
2017-07-25T10:20:01.000Z,20.3
2017-07-25T10:30:01.000Z,20.3
2017-07-25T10:40:01.000Z,20.3
2017-07-25T10:50:02.000Z,20.3
2017-07-25T11:00:01.000Z,20.3
2017-07-25T11:10:01.000Z,20.3
2017-07-25T11:20:05.000Z,20.3
2017-07-25T11:30:01.000Z,20.3
2017-07-25T11:40:01.000Z,20.3
2017-07-25T11:50:01.000Z,20.3
2017-07-25T12:00:02.000Z,20.3
2017-07-25T12:10:01.000Z,20.3
2017-07-25T12:20:01.000Z,20.3
2017-07-25T12:30:01.000Z,20.3
2017-07-25T12:40:01.000Z,20.4
2017-07-25T12:50:02.000Z,20.5
2017-07-25T13:00:01.000Z,20.5
2017-07-25T13:10:01.000Z,20.6
2017-07-25T13:20:01.000Z,20.5
2017-07-25T13:30:01.000Z,20.5
2017-07-25T13:40:01.000Z,20.4
2017-07-25T13:50:01.000Z,20.5
2017-07-25T14:00:05.000Z,20.4
2017-07-25T14:10:01.000Z,20.4
2017-07-25T14:20:01.000Z,20.3
2017-07-25T14:30:02.000Z,20.3
2017-07-25T14:40:01.000Z,20.3
2017-07-25T14:50:01.000Z,20.3
2017-07-25T15:00:02.000Z,20.3
2017-07-25T15:10:01.000Z,20.3
2017-07-25T15:20:01.000Z,20.3
2017-07-25T15:30:02.000Z,20.3
2017-07-25T15:40:01.000Z,20.3
2017-07-25T15:50:01.000Z,20.3
2017-07-25T16:00:02.000Z,20.3
2017-07-25T16:10:02.000Z,20.3
2017-07-25T16:20:01.000Z,20.3
2017-07-25T16:30:01.000Z,20.3
2017-07-25T16:40:05.000Z,20.3
2017-07-25T16:50:01.000Z,20.3
2017-07-25T17:00:01.000Z,20.3
2017-07-25T17:10:01.000Z,20.3
2017-07-25T17:20:01.000Z,20.3
2017-07-25T17:30:02.000Z,20.3
2017-07-25T17:40:01.000Z,20.3
2017-07-25T17:50:01.000Z,20.3
2017-07-25T18:00:02.000Z,20.3
2017-07-25T18:10:01.000Z,20.3
2017-07-25T18:20:01.000Z,20.3
2017-07-25T18:30:01.000Z,20.3
2017-07-25T18:40:01.000Z,20.3
2017-07-25T18:50:02.000Z,20.3
2017-07-25T19:00:01.000Z,20.3
2017-07-25T19:10:01.000Z,20.3
2017-07-25T19:20:04.000Z,19.9
2017-07-25T19:30:01.000Z,20.2
2017-07-25T19:40:01.000Z,20.3
2017-07-25T19:50:02.000Z,20.3
2017-07-25T20:00:01.000Z,20.3
2017-07-25T20:10:01.000Z,20.3
2017-07-25T20:20:01.000Z,20.3
2017-07-25T20:30:02.000Z,20.3
2017-07-25T20:40:01.000Z,20.3
2017-07-25T20:50:01.000Z,20.3
2017-07-25T21:00:02.000Z,20.2
2017-07-25T21:10:02.000Z,20.2
2017-07-25T21:20:01.000Z,20.2
2017-07-25T21:30:01.000Z,20.2
2017-07-25T21:40:01.000Z,20.2
2017-07-25T21:50:02.000Z,20.2
2017-07-25T22:00:06.000Z,20.2
2017-07-25T22:10:01.000Z,20.1
2017-07-25T22:20:01.000Z,20.1
2017-07-25T22:30:01.000Z,20
2017-07-25T22:40:01.000Z,20
2017-07-25T22:50:01.000Z,20
2017-07-25T23:00:01.000Z,20
2017-07-25T23:10:01.000Z,20
2017-07-25T23:20:02.000Z,19.9
2017-07-25T23:30:01.000Z,19.9
2017-07-25T23:40:01.000Z,19.9
2017-07-25T23:50:01.000Z,19.9
